Forside
METAR-TAF:

METAR-TAF

Lufthavne :

Chicago O'Hare International Airport

Chicago, Illinois, USA

Breddekreds: 41-58-47N, længdekreds: 087-54-16W, højde: 203 m

Aktuelle vejr

Denne rapport blev lavet for 1 time og 5 minutter siden, kl. 20:51 UTC
Vind 9 kt fra vestsydvest
Temperatur -1°C
Fugtighed 86%
Tryk 1012 hPa
Sigt: 14.5 km
Overskyet i en højde af 800 ft

METAR: KORD 262051Z 25009KT 9SM OVC008 M01/M03 A2988 RMK AO2 SLP125 T10111028 55007

Tid: 15:56 (21:56 UTC)

Vejrudsigter

Denne rapport blev lavet for 50 minutter siden, kl. 21:06 UTC
Foreløbig gælder fra 26 på 21 UTC til 27 på 24 UTC
Vind 9 kt fra vest
Sigt: 10 km
Overskyet i en højde af 700 ft
Fra 27 på 1100 UTC
Vind 5 kt fra nordvest
Sigt: 10 km
Overskyet i en højde af 1000 ft

TAF: KORD 262106Z 2621/2724 26009KT P6SM OVC007 FM271100 31005KT P6SM OVC010

Vejrobservationer og prognoser fra mere end 4000 lufthavne (METAR og TAF).

De gule og røde prikker repræsenterer de meteorologiske stationer.

Flyt musen over at se navnet på stationen.

Så klik over at se vejr observationer og prognoser.

At skifte det kort: Klik på de grønne knapper med et sort kors for at zoome ind; på den grønne knap med en bindestreg for at zoome ud; eller på de grønne pile for tilstødende kort.


METAR-TAF: